sensor_id;sensor_type;location;lat;lon;timestamp;temperature;humidity
58983;DHT22;44771;49.982;8.560;2023-03-03T00:03:19;2.00;99.90
58983;DHT22;44771;49.982;8.560;2023-03-03T00:08:21;2.00;99.90
58983;DHT22;44771;49.982;8.560;2023-03-03T00:13:25;1.80;99.90
58983;DHT22;44771;49.982;8.560;2023-03-03T00:18:32;1.50;99.90
58983;DHT22;44771;49.982;8.560;2023-03-03T00:23:37;1.30;99.90
58983;DHT22;44771;49.982;8.560;2023-03-03T00:28:43;1.30;99.90
58983;DHT22;44771;49.982;8.560;2023-03-03T00:33:48;1.20;99.90
58983;DHT22;44771;49.982;8.560;2023-03-03T00:38:50;1.10;99.90
58983;DHT22;44771;49.982;8.560;2023-03-03T00:43:53;1.00;99.90
58983;DHT22;44771;49.982;8.560;2023-03-03T00:48:56;0.80;99.90
58983;DHT22;44771;49.982;8.560;2023-03-03T00:53:58;0.60;99.90
58983;DHT22;44771;49.982;8.560;2023-03-03T00:58:59;0.60;99.90
58983;DHT22;44771;49.982;8.560;2023-03-03T01:04:03;0.60;99.90
58983;DHT22;44771;49.982;8.560;2023-03-03T01:09:04;0.20;99.90
58983;DHT22;44771;49.982;8.560;2023-03-03T01:14:06;0.50;99.90
58983;DHT22;44771;49.982;8.560;2023-03-03T01:19:09;0.50;99.90
58983;DHT22;44771;49.982;8.560;2023-03-03T01:24:11;0.10;99.90
58983;DHT22;44771;49.982;8.560;2023-03-03T01:29:13;-0.30;99.90
58983;DHT22;44771;49.982;8.560;2023-03-03T01:34:16;-0.60;99.90
58983;DHT22;44771;49.982;8.560;2023-03-03T01:39:18;-0.80;99.90
58983;DHT22;44771;49.982;8.560;2023-03-03T01:44:20;-0.90;99.90
58983;DHT22;44771;49.982;8.560;2023-03-03T01:49:25;-1.00;99.90
58983;DHT22;44771;49.982;8.560;2023-03-03T01:54:34;-1.10;99.90
58983;DHT22;44771;49.982;8.560;2023-03-03T01:59:41;-1.10;99.90
58983;DHT22;44771;49.982;8.560;2023-03-03T02:04:46;-1.20;99.90
58983;DHT22;44771;49.982;8.560;2023-03-03T02:09:53;-1.20;99.90
58983;DHT22;44771;49.982;8.560;2023-03-03T02:14:55;-1.30;99.90
58983;DHT22;44771;49.982;8.560;2023-03-03T02:20:03;-1.30;99.90
58983;DHT22;44771;49.982;8.560;2023-03-03T02:25:10;-1.50;99.90
58983;DHT22;44771;49.982;8.560;2023-03-03T02:30:19;-1.80;99.90
58983;DHT22;44771;49.982;8.560;2023-03-03T02:35:28;-1.90;99.90
58983;DHT22;44771;49.982;8.560;2023-03-03T02:40:33;-1.90;99.90
58983;DHT22;44771;49.982;8.560;2023-03-03T02:45:42;-1.70;99.90
58983;DHT22;44771;49.982;8.560;2023-03-03T02:50:45;-1.50;99.90
58983;DHT22;44771;49.982;8.560;2023-03-03T02:55:46;-1.30;99.90
58983;DHT22;44771;49.982;8.560;2023-03-03T03:00:49;-0.90;99.90
58983;DHT22;44771;49.982;8.560;2023-03-03T03:05:51;-1.10;99.90
58983;DHT22;44771;49.982;8.560;2023-03-03T03:10:53;-1.10;99.90
58983;DHT22;44771;49.982;8.560;2023-03-03T03:15:56;-1.20;99.90
58983;DHT22;44771;49.982;8.560;2023-03-03T03:21:05;-1.00;99.90
58983;DHT22;44771;49.982;8.560;2023-03-03T03:26:07;-0.90;99.90
58983;DHT22;44771;49.982;8.560;2023-03-03T03:31:10;-0.70;99.90
58983;DHT22;44771;49.982;8.560;2023-03-03T03:36:12;-0.60;99.90
58983;DHT22;44771;49.982;8.560;2023-03-03T03:41:14;-0.70;99.90
58983;DHT22;44771;49.982;8.560;2023-03-03T03:46:17;-0.70;99.90
58983;DHT22;44771;49.982;8.560;2023-03-03T03:51:19;-0.70;99.90
58983;DHT22;44771;49.982;8.560;2023-03-03T03:56:21;-0.60;99.90
58983;DHT22;44771;49.982;8.560;2023-03-03T04:01:24;-0.70;99.90
58983;DHT22;44771;49.982;8.560;2023-03-03T04:06:25;-0.80;99.90
58983;DHT22;44771;49.982;8.560;2023-03-03T04:11:27;-0.80;99.90
58983;DHT22;44771;49.982;8.560;2023-03-03T04:16:30;-0.90;99.90
58983;DHT22;44771;49.982;8.560;2023-03-03T04:21:32;-0.80;99.90
58983;DHT22;44771;49.982;8.560;2023-03-03T04:26:34;-0.60;99.90
58983;DHT22;44771;49.982;8.560;2023-03-03T04:31:37;-0.40;99.90
58983;DHT22;44771;49.982;8.560;2023-03-03T04:36:39;-0.50;99.90
58983;DHT22;44771;49.982;8.560;2023-03-03T04:41:40;-0.40;99.90
58983;DHT22;44771;49.982;8.560;2023-03-03T04:46:43;-0.40;99.90
58983;DHT22;44771;49.982;8.560;2023-03-03T04:51:45;-0.20;99.90
58983;DHT22;44771;49.982;8.560;2023-03-03T04:56:47;-0.20;99.90
58983;DHT22;44771;49.982;8.560;2023-03-03T05:01:50;-0.20;99.90
58983;DHT22;44771;49.982;8.560;2023-03-03T05:06:54;-0.20;99.90
58983;DHT22;44771;49.982;8.560;2023-03-03T05:11:56;-0.40;99.90
58983;DHT22;44771;49.982;8.560;2023-03-03T05:16:59;-0.50;99.90
58983;DHT22;44771;49.982;8.560;2023-03-03T05:22:01;-0.60;99.90
58983;DHT22;44771;49.982;8.560;2023-03-03T05:27:03;-0.70;99.90
58983;DHT22;44771;49.982;8.560;2023-03-03T05:32:06;-0.80;99.90
58983;DHT22;44771;49.982;8.560;2023-03-03T05:37:08;-1.00;99.90
58983;DHT22;44771;49.982;8.560;2023-03-03T05:42:11;-1.00;99.90
58983;DHT22;44771;49.982;8.560;2023-03-03T05:47:14;-1.00;99.90
58983;DHT22;44771;49.982;8.560;2023-03-03T05:52:15;-1.10;99.90
58983;DHT22;44771;49.982;8.560;2023-03-03T05:57:17;-1.10;99.90
58983;DHT22;44771;49.982;8.560;2023-03-03T06:02:20;-1.10;99.90
58983;DHT22;44771;49.982;8.560;2023-03-03T06:07:22;-1.20;99.90
58983;DHT22;44771;49.982;8.560;2023-03-03T06:12:24;-1.40;99.90
58983;DHT22;44771;49.982;8.560;2023-03-03T06:17:27;-1.50;99.90
58983;DHT22;44771;49.982;8.560;2023-03-03T06:22:29;-1.40;99.90
58983;DHT22;44771;49.982;8.560;2023-03-03T06:27:30;-1.40;99.90
58983;DHT22;44771;49.982;8.560;2023-03-03T06:32:33;-1.20;99.90
58983;DHT22;44771;49.982;8.560;2023-03-03T06:37:36;-1.20;99.90
58983;DHT22;44771;49.982;8.560;2023-03-03T06:42:38;-1.20;99.90
58983;DHT22;44771;49.982;8.560;2023-03-03T06:47:41;-1.20;99.90
58983;DHT22;44771;49.982;8.560;2023-03-03T06:52:42;-1.10;99.90
58983;DHT22;44771;49.982;8.560;2023-03-03T06:57:44;-1.10;99.90
58983;DHT22;44771;49.982;8.560;2023-03-03T07:02:55;-1.00;99.90
58983;DHT22;44771;49.982;8.560;2023-03-03T07:07:58;-0.80;99.90
58983;DHT22;44771;49.982;8.560;2023-03-03T07:13:16;-0.60;99.90
58983;DHT22;44771;49.982;8.560;2023-03-03T07:18:30;-0.50;99.90
58983;DHT22;44771;49.982;8.560;2023-03-03T07:23:37;-0.40;99.90
58983;DHT22;44771;49.982;8.560;2023-03-03T07:28:41;-0.30;99.90
58983;DHT22;44771;49.982;8.560;2023-03-03T07:33:45;-0.20;99.90
58983;DHT22;44771;49.982;8.560;2023-03-03T07:38:50;0.00;99.90
58983;DHT22;44771;49.982;8.560;2023-03-03T07:43:54;0.20;99.90
58983;DHT22;44771;49.982;8.560;2023-03-03T07:49:00;0.30;99.90
58983;DHT22;44771;49.982;8.560;2023-03-03T07:54:16;0.40;99.90
58983;DHT22;44771;49.982;8.560;2023-03-03T07:59:24;0.60;99.90
58983;DHT22;44771;49.982;8.560;2023-03-03T08:04:34;0.80;99.90
58983;DHT22;44771;49.982;8.560;2023-03-03T08:09:45;0.90;99.90
58983;DHT22;44771;49.982;8.560;2023-03-03T08:14:50;1.10;99.90
58983;DHT22;44771;49.982;8.560;2023-03-03T08:19:54;1.10;99.90
58983;DHT22;44771;49.982;8.560;2023-03-03T08:25:11;1.20;99.90
58983;DHT22;44771;49.982;8.560;2023-03-03T08:30:17;1.20;99.90
58983;DHT22;44771;49.982;8.560;2023-03-03T08:35:21;1.20;99.90
58983;DHT22;44771;49.982;8.560;2023-03-03T08:40:22;1.20;99.90
58983;DHT22;44771;49.982;8.560;2023-03-03T08:45:25;1.10;99.90
58983;DHT22;44771;49.982;8.560;2023-03-03T08:50:29;1.30;99.90
58983;DHT22;44771;49.982;8.560;2023-03-03T08:55:31;1.40;99.90
58983;DHT22;44771;49.982;8.560;2023-03-03T09:00:33;1.40;99.90
58983;DHT22;44771;49.982;8.560;2023-03-03T09:05:37;1.70;99.90
58983;DHT22;44771;49.982;8.560;2023-03-03T09:10:40;1.70;99.90
58983;DHT22;44771;49.982;8.560;2023-03-03T09:15:41;2.00;99.90
58983;DHT22;44771;49.982;8.560;2023-03-03T09:20:46;2.50;99.90
58983;DHT22;44771;49.982;8.560;2023-03-03T09:25:48;3.00;99.90
58983;DHT22;44771;49.982;8.560;2023-03-03T09:30:52;3.20;99.90
58983;DHT22;44771;49.982;8.560;2023-03-03T09:36:02;3.40;99.90
58983;DHT22;44771;49.982;8.560;2023-03-03T09:41:26;3.20;99.90
58983;DHT22;44771;49.982;8.560;2023-03-03T09:46:37;3.50;99.90
58983;DHT22;44771;49.982;8.560;2023-03-03T09:51:58;3.70;99.90
58983;DHT22;44771;49.982;8.560;2023-03-03T09:57:09;4.00;99.90
58983;DHT22;44771;49.982;8.560;2023-03-03T10:02:25;4.10;99.90
58983;DHT22;44771;49.982;8.560;2023-03-03T10:07:40;4.00;99.90
58983;DHT22;44771;49.982;8.560;2023-03-03T10:12:50;4.30;99.90
58983;DHT22;44771;49.982;8.560;2023-03-03T10:18:00;4.60;99.90
58983;DHT22;44771;49.982;8.560;2023-03-03T10:23:14;4.70;99.90
58983;DHT22;44771;49.982;8.560;2023-03-03T10:28:32;4.90;99.90
58983;DHT22;44771;49.982;8.560;2023-03-03T10:33:46;5.20;99.90
58983;DHT22;44771;49.982;8.560;2023-03-03T10:39:02;5.00;99.90
58983;DHT22;44771;49.982;8.560;2023-03-03T10:44:22;5.20;99.90
58983;DHT22;44771;49.982;8.560;2023-03-03T10:49:44;5.50;99.90
58983;DHT22;44771;49.982;8.560;2023-03-03T10:55:22;5.40;99.90
58983;DHT22;44771;49.982;8.560;2023-03-03T11:00:28;5.80;99.90
58983;DHT22;44771;49.982;8.560;2023-03-03T11:05:34;5.90;99.90
58983;DHT22;44771;49.982;8.560;2023-03-03T11:10:49;5.90;99.90
58983;DHT22;44771;49.982;8.560;2023-03-03T11:16:04;6.20;99.90
58983;DHT22;44771;49.982;8.560;2023-03-03T11:21:09;5.80;99.90
58983;DHT22;44771;49.982;8.560;2023-03-03T11:26:23;5.70;99.90
58983;DHT22;44771;49.982;8.560;2023-03-03T11:31:31;5.90;99.90
58983;DHT22;44771;49.982;8.560;2023-03-03T11:36:37;6.00;99.90
58983;DHT22;44771;49.982;8.560;2023-03-03T11:41:51;5.90;99.90
58983;DHT22;44771;49.982;8.560;2023-03-03T11:47:15;6.20;99.90
58983;DHT22;44771;49.982;8.560;2023-03-03T11:52:38;6.40;99.90
58983;DHT22;44771;49.982;8.560;2023-03-03T11:58:11;6.80;97.60
58983;DHT22;44771;49.982;8.560;2023-03-03T12:03:25;6.80;96.70
58983;DHT22;44771;49.982;8.560;2023-03-03T12:08:52;6.90;99.00
58983;DHT22;44771;49.982;8.560;2023-03-03T12:14:11;7.40;96.20
58983;DHT22;44771;49.982;8.560;2023-03-03T12:19:39;7.50;93.70
58983;DHT22;44771;49.982;8.560;2023-03-03T12:25:03;7.50;93.40
58983;DHT22;44771;49.982;8.560;2023-03-03T12:30:23;7.50;94.60
58983;DHT22;44771;49.982;8.560;2023-03-03T12:35:40;7.80;92.90
58983;DHT22;44771;49.982;8.560;2023-03-03T12:41:28;7.80;92.70
58983;DHT22;44771;49.982;8.560;2023-03-03T12:46:42;7.50;93.40
58983;DHT22;44771;49.982;8.560;2023-03-03T12:51:54;7.90;93.20
58983;DHT22;44771;49.982;8.560;2023-03-03T12:57:08;7.70;91.30
58983;DHT22;44771;49.982;8.560;2023-03-03T13:02:28;7.60;92.80
58983;DHT22;44771;49.982;8.560;2023-03-03T13:07:40;7.90;92.10
58983;DHT22;44771;49.982;8.560;2023-03-03T13:12:45;7.70;90.00
58983;DHT22;44771;49.982;8.560;2023-03-03T13:17:59;7.70;89.40
58983;DHT22;44771;49.982;8.560;2023-03-03T13:23:07;7.90;88.50
58983;DHT22;44771;49.982;8.560;2023-03-03T13:28:20;8.00;89.80
58983;DHT22;44771;49.982;8.560;2023-03-03T13:33:26;8.30;86.70
58983;DHT22;44771;49.982;8.560;2023-03-03T13:38:31;8.10;89.60
58983;DHT22;44771;49.982;8.560;2023-03-03T13:43:40;8.00;84.80
58983;DHT22;44771;49.982;8.560;2023-03-03T13:48:53;8.10;84.90
58983;DHT22;44771;49.982;8.560;2023-03-03T13:54:06;8.00;84.50
58983;DHT22;44771;49.982;8.560;2023-03-03T13:59:17;8.30;83.70
58983;DHT22;44771;49.982;8.560;2023-03-03T14:04:34;8.30;83.30
58983;DHT22;44771;49.982;8.560;2023-03-03T14:09:51;7.90;83.70
58983;DHT22;44771;49.982;8.560;2023-03-03T14:15:00;7.90;83.80
58983;DHT22;44771;49.982;8.560;2023-03-03T14:20:14;8.00;86.70
58983;DHT22;44771;49.982;8.560;2023-03-03T14:25:21;7.90;83.70
58983;DHT22;44771;49.982;8.560;2023-03-03T14:30:37;7.80;85.90
58983;DHT22;44771;49.982;8.560;2023-03-03T14:35:42;7.80;85.90
58983;DHT22;44771;49.982;8.560;2023-03-03T14:40:45;7.80;86.00
58983;DHT22;44771;49.982;8.560;2023-03-03T14:45:47;7.70;86.60
58983;DHT22;44771;49.982;8.560;2023-03-03T14:50:52;7.50;87.60
58983;DHT22;44771;49.982;8.560;2023-03-03T14:55:54;7.60;87.30
58983;DHT22;44771;49.982;8.560;2023-03-03T15:01:07;7.50;89.00
58983;DHT22;44771;49.982;8.560;2023-03-03T15:06:11;7.50;88.90
58983;DHT22;44771;49.982;8.560;2023-03-03T15:11:19;7.40;87.20
58983;DHT22;44771;49.982;8.560;2023-03-03T15:16:31;7.30;89.20
58983;DHT22;44771;49.982;8.560;2023-03-03T15:21:41;7.30;88.90
58983;DHT22;44771;49.982;8.560;2023-03-03T15:26:50;7.10;88.30
58983;DHT22;44771;49.982;8.560;2023-03-03T15:31:56;7.10;89.80
58983;DHT22;44771;49.982;8.560;2023-03-03T15:37:08;6.90;90.20
58983;DHT22;44771;49.982;8.560;2023-03-03T15:42:18;6.70;90.10
58983;DHT22;44771;49.982;8.560;2023-03-03T15:47:37;6.60;90.90
58983;DHT22;44771;49.982;8.560;2023-03-03T15:52:50;6.50;91.40
58983;DHT22;44771;49.982;8.560;2023-03-03T15:58:04;6.30;92.10
58983;DHT22;44771;49.982;8.560;2023-03-03T16:03:12;6.40;92.30
58983;DHT22;44771;49.982;8.560;2023-03-03T16:08:20;6.30;91.00
58983;DHT22;44771;49.982;8.560;2023-03-03T16:13:36;6.30;91.60
58983;DHT22;44771;49.982;8.560;2023-03-03T16:18:52;6.10;91.60
58983;DHT22;44771;49.982;8.560;2023-03-03T16:24:04;5.90;92.20
58983;DHT22;44771;49.982;8.560;2023-03-03T16:29:39;5.90;92.40
58983;DHT22;44771;49.982;8.560;2023-03-03T16:34:54;5.70;93.10
58983;DHT22;44771;49.982;8.560;2023-03-03T16:40:04;5.60;93.40
58983;DHT22;44771;49.982;8.560;2023-03-03T16:45:21;5.40;95.00
58983;DHT22;44771;49.982;8.560;2023-03-03T16:50:26;5.20;94.70
58983;DHT22;44771;49.982;8.560;2023-03-03T16:55:35;5.00;95.50
58983;DHT22;44771;49.982;8.560;2023-03-03T17:00:47;4.90;96.00
58983;DHT22;44771;49.982;8.560;2023-03-03T17:05:52;4.70;96.70
58983;DHT22;44771;49.982;8.560;2023-03-03T17:11:00;4.50;97.70
58983;DHT22;44771;49.982;8.560;2023-03-03T17:16:11;4.40;98.20
58983;DHT22;44771;49.982;8.560;2023-03-03T17:21:22;4.20;99.20
58983;DHT22;44771;49.982;8.560;2023-03-03T17:26:50;3.90;99.90
58983;DHT22;44771;49.982;8.560;2023-03-03T17:32:00;3.70;99.90
58983;DHT22;44771;49.982;8.560;2023-03-03T17:37:16;3.50;99.90
58983;DHT22;44771;49.982;8.560;2023-03-03T17:42:26;3.30;99.90
58983;DHT22;44771;49.982;8.560;2023-03-03T17:47:44;3.10;99.90
58983;DHT22;44771;49.982;8.560;2023-03-03T17:52:58;3.00;99.90
58983;DHT22;44771;49.982;8.560;2023-03-03T17:58:19;2.90;99.90
58983;DHT22;44771;49.982;8.560;2023-03-03T18:03:45;2.70;99.90
58983;DHT22;44771;49.982;8.560;2023-03-03T18:14:44;2.70;99.90
58983;DHT22;44771;49.982;8.560;2023-03-03T18:20:11;2.60;99.90
58983;DHT22;44771;49.982;8.560;2023-03-03T18:25:20;2.20;99.90
58983;DHT22;44771;49.982;8.560;2023-03-03T18:30:26;1.90;99.90
58983;DHT22;44771;49.982;8.560;2023-03-03T18:35:32;1.70;99.90
58983;DHT22;44771;49.982;8.560;2023-03-03T18:40:47;1.70;99.90
58983;DHT22;44771;49.982;8.560;2023-03-03T18:45:52;2.00;99.90
58983;DHT22;44771;49.982;8.560;2023-03-03T18:50:54;2.00;99.90
58983;DHT22;44771;49.982;8.560;2023-03-03T18:55:58;1.50;99.90
58983;DHT22;44771;49.982;8.560;2023-03-03T19:06:30;0.60;99.90
58983;DHT22;44771;49.982;8.560;2023-03-03T19:11:35;0.40;99.90
58983;DHT22;44771;49.982;8.560;2023-03-03T19:16:39;0.50;99.90
58983;DHT22;44771;49.982;8.560;2023-03-03T19:21:43;1.00;99.90
58983;DHT22;44771;49.982;8.560;2023-03-03T19:37:40;1.00;99.90
58983;DHT22;44771;49.982;8.560;2023-03-03T19:42:54;0.60;99.90
58983;DHT22;44771;49.982;8.560;2023-03-03T19:48:05;0.20;99.90
58983;DHT22;44771;49.982;8.560;2023-03-03T19:53:16;-0.10;99.90
58983;DHT22;44771;49.982;8.560;2023-03-03T19:58:26;-0.40;99.90
58983;DHT22;44771;49.982;8.560;2023-03-03T20:03:56;-0.80;99.90
58983;DHT22;44771;49.982;8.560;2023-03-03T20:09:03;-1.00;99.90
58983;DHT22;44771;49.982;8.560;2023-03-03T20:14:20;-1.30;99.90
58983;DHT22;44771;49.982;8.560;2023-03-03T20:19:30;-1.40;99.90
58983;DHT22;44771;49.982;8.560;2023-03-03T20:30:23;-1.60;99.90
58983;DHT22;44771;49.982;8.560;2023-03-03T20:35:37;-1.90;99.90
58983;DHT22;44771;49.982;8.560;2023-03-03T20:40:46;-2.20;99.90
58983;DHT22;44771;49.982;8.560;2023-03-03T20:45:58;-1.80;99.90
58983;DHT22;44771;49.982;8.560;2023-03-03T20:51:06;-1.60;99.90
58983;DHT22;44771;49.982;8.560;2023-03-03T20:56:14;-1.70;99.90
58983;DHT22;44771;49.982;8.560;2023-03-03T21:01:25;-1.80;99.90
58983;DHT22;44771;49.982;8.560;2023-03-03T21:06:36;-1.70;99.90
58983;DHT22;44771;49.982;8.560;2023-03-03T21:11:42;-2.00;99.90
58983;DHT22;44771;49.982;8.560;2023-03-03T21:16:44;-2.40;99.90
58983;DHT22;44771;49.982;8.560;2023-03-03T21:21:47;-2.50;99.90
58983;DHT22;44771;49.982;8.560;2023-03-03T21:26:53;-2.30;99.90
58983;DHT22;44771;49.982;8.560;2023-03-03T21:31:56;-2.20;99.90
58983;DHT22;44771;49.982;8.560;2023-03-03T21:36:59;-2.50;99.90
58983;DHT22;44771;49.982;8.560;2023-03-03T21:42:04;-2.70;99.90
58983;DHT22;44771;49.982;8.560;2023-03-03T21:47:08;-2.80;99.90
58983;DHT22;44771;49.982;8.560;2023-03-03T21:52:12;-2.80;99.90
58983;DHT22;44771;49.982;8.560;2023-03-03T21:57:16;-3.00;99.90
58983;DHT22;44771;49.982;8.560;2023-03-03T22:02:18;-3.10;99.90
58983;DHT22;44771;49.982;8.560;2023-03-03T22:07:19;-3.20;99.90
58983;DHT22;44771;49.982;8.560;2023-03-03T22:12:22;-3.40;99.90
58983;DHT22;44771;49.982;8.560;2023-03-03T22:17:24;-3.50;99.90
58983;DHT22;44771;49.982;8.560;2023-03-03T22:22:26;-3.30;99.90
58983;DHT22;44771;49.982;8.560;2023-03-03T22:27:29;-3.50;99.90
58983;DHT22;44771;49.982;8.560;2023-03-03T22:32:31;-3.50;99.90
58983;DHT22;44771;49.982;8.560;2023-03-03T22:37:33;-3.60;99.90
58983;DHT22;44771;49.982;8.560;2023-03-03T22:42:36;-3.60;99.90
58983;DHT22;44771;49.982;8.560;2023-03-03T22:47:37;-3.60;99.90
58983;DHT22;44771;49.982;8.560;2023-03-03T22:52:39;-3.60;99.90
58983;DHT22;44771;49.982;8.560;2023-03-03T22:57:42;-3.70;99.90
58983;DHT22;44771;49.982;8.560;2023-03-03T23:02:44;-3.80;99.90
58983;DHT22;44771;49.982;8.560;2023-03-03T23:07:47;-3.90;99.90
58983;DHT22;44771;49.982;8.560;2023-03-03T23:12:50;-4.00;99.90
58983;DHT22;44771;49.982;8.560;2023-03-03T23:17:52;-4.00;99.90
58983;DHT22;44771;49.982;8.560;2023-03-03T23:22:54;-4.00;99.90
58983;DHT22;44771;49.982;8.560;2023-03-03T23:27:57;-3.90;99.90
58983;DHT22;44771;49.982;8.560;2023-03-03T23:32:59;-3.90;99.90
58983;DHT22;44771;49.982;8.560;2023-03-03T23:38:01;-4.10;99.90
58983;DHT22;44771;49.982;8.560;2023-03-03T23:43:04;-4.40;99.90
58983;DHT22;44771;49.982;8.560;2023-03-03T23:48:05;-4.60;99.90
58983;DHT22;44771;49.982;8.560;2023-03-03T23:53:07;-4.70;99.90
58983;DHT22;44771;49.982;8.560;2023-03-03T23:58:10;-4.60;99.90
